Time;durP1;ratioP1;P1;durP2;ratioP2;P2;SDS_P1;SDS_P2;PMS_P1;PMS_P2;Temp;Humidity;BMP_temperature;BMP_pressure;BME280_temperature;BME280_humidity;BME280_pressure;Samples;Min_cycle;Max_cycle;Signal;HPM_P1;HPM_P2
2022/02/22 00:01:14;;;;;;;36.47;16.47;;;5.80;99.90;;;;;;5078259;28;20462;-68
2022/02/22 00:03:43;;;;;;;29.20;17.00;;;5.80;99.90;;;;;;5095750;28;20465;-68
2022/02/22 00:06:09;;;;;;;35.03;18.03;;;5.90;99.90;;;;;;5092930;28;20450;-68
2022/02/22 00:08:37;;;;;;;25.73;15.03;;;6.00;99.90;;;;;;5089010;28;20971;-68
2022/02/22 00:11:04;;;;;;;44.20;16.43;;;6.00;99.90;;;;;;5090093;28;20511;-68
2022/02/22 00:13:31;;;;;;;26.47;15.40;;;6.10;99.90;;;;;;5096480;28;20551;-70
2022/02/22 00:16:00;;;;;;;27.77;15.73;;;6.10;99.90;;;;;;5091092;28;20458;-69
2022/02/22 00:18:27;;;;;;;31.43;16.70;;;6.10;99.90;;;;;;5092762;28;21231;-70
2022/02/22 00:20:55;;;;;;;23.53;16.90;;;6.10;99.90;;;;;;5092282;28;20463;-70
2022/02/22 00:23:22;;;;;;;23.67;15.43;;;6.10;99.90;;;;;;5093368;28;20460;-72
2022/02/22 00:25:49;;;;;;;28.43;16.23;;;6.10;99.90;;;;;;5094333;28;20469;-69
2022/02/22 00:28:19;;;;;;;28.43;16.27;;;6.00;99.90;;;;;;5093625;28;20461;-71
2022/02/22 00:30:47;;;;;;;29.40;16.40;;;5.90;99.90;;;;;;5097046;28;20468;-71
2022/02/22 00:33:15;;;;;;;23.93;15.83;;;5.80;99.90;;;;;;5088770;28;21040;-71
2022/02/22 00:35:42;;;;;;;28.30;14.93;;;5.70;99.90;;;;;;5090000;28;20501;-72
2022/02/22 00:38:10;;;;;;;28.57;15.50;;;5.60;99.90;;;;;;5091773;28;20839;-72
2022/02/22 00:40:37;;;;;;;39.53;16.07;;;5.60;99.90;;;;;;5093737;28;20499;-71
2022/02/22 00:43:05;;;;;;;26.43;15.83;;;5.50;99.90;;;;;;5088835;28;20487;-70
2022/02/22 00:45:32;;;;;;;29.10;16.13;;;5.50;99.90;;;;;;5098375;28;20457;-69
2022/02/22 00:47:58;;;;;;;32.47;16.63;;;5.50;99.90;;;;;;5097729;28;20467;-70
2022/02/22 00:50:28;;;;;;;25.10;16.10;;;5.50;99.90;;;;;;5098408;28;20462;-69
2022/02/22 00:52:55;;;;;;;28.50;14.57;;;5.50;99.90;;;;;;5099597;28;20461;-71
2022/02/22 00:55:24;;;;;;;23.87;15.60;;;5.50;99.90;;;;;;5098732;28;20989;-70
2022/02/22 00:57:51;;;;;;;15.60;13.43;;;5.50;99.90;;;;;;5093005;28;20842;-71
2022/02/22 01:00:18;;;;;;;34.23;16.03;;;5.30;99.90;;;;;;5101909;28;20833;-72
2022/02/22 01:02:45;;;;;;;29.10;15.63;;;5.30;99.90;;;;;;5100011;28;20844;-70
2022/02/22 01:05:12;;;;;;;21.23;15.47;;;5.30;99.90;;;;;;5096751;28;20583;-71
2022/02/22 01:07:39;;;;;;;30.50;15.90;;;5.30;99.90;;;;;;5094004;28;20453;-70
2022/02/22 01:10:08;;;;;;;44.97;15.93;;;5.30;99.90;;;;;;5097255;28;20453;-70
2022/02/22 01:12:36;;;;;;;29.40;15.53;;;5.30;99.90;;;;;;5093372;28;20504;-70
2022/02/22 01:15:03;;;;;;;39.97;15.90;;;5.40;99.90;;;;;;5092232;28;20497;-70
2022/02/22 01:17:30;;;;;;;33.40;15.93;;;5.30;99.90;;;;;;5095352;28;20457;-71
2022/02/22 01:19:57;;;;;;;26.27;15.53;;;5.20;99.90;;;;;;5098005;28;20516;-70
2022/02/22 01:22:24;;;;;;;28.37;16.60;;;5.20;99.90;;;;;;5096976;28;20542;-69
2022/02/22 01:24:51;;;;;;;38.63;17.80;;;5.00;99.90;;;;;;5100673;28;20958;-70
2022/02/22 01:27:18;;;;;;;40.80;15.33;;;5.10;99.90;;;;;;5096800;28;21119;-71
2022/02/22 01:29:46;;;;;;;32.97;15.60;;;5.10;99.90;;;;;;5093353;28;20465;-70
2022/02/22 01:32:13;;;;;;;33.03;15.63;;;5.10;99.90;;;;;;5093530;28;20467;-72
2022/02/22 01:34:40;;;;;;;33.10;16.00;;;5.10;99.90;;;;;;5096469;28;20497;-70
2022/02/22 01:37:06;;;;;;;31.00;15.70;;;5.10;99.90;;;;;;5095743;28;20462;-70
2022/02/22 01:39:34;;;;;;;41.30;16.30;;;5.00;99.90;;;;;;5095077;28;20473;-71
2022/02/22 01:42:02;;;;;;;24.83;14.47;;;5.00;99.90;;;;;;5091535;28;20496;-69
2022/02/22 01:44:29;;;;;;;22.03;15.20;;;4.80;99.90;;;;;;5088364;28;20471;-71
2022/02/22 01:46:59;;;;;;;25.50;15.83;;;4.90;99.90;;;;;;5096174;28;20545;-69
2022/02/22 01:49:27;;;;;;;29.57;14.97;;;4.90;99.90;;;;;;5095658;28;20560;-69
2022/02/22 01:51:55;;;;;;;26.93;14.67;;;4.90;99.90;;;;;;5093538;28;20543;-71
2022/02/22 01:54:25;;;;;;;37.93;16.13;;;4.90;99.90;;;;;;5094032;28;20493;-69
2022/02/22 01:56:53;;;;;;;34.70;16.80;;;5.00;99.90;;;;;;5095388;28;20462;-72
2022/02/22 01:59:20;;;;;;;29.40;14.77;;;5.00;99.90;;;;;;5093859;28;20453;-71
2022/02/22 02:01:47;;;;;;;23.57;15.93;;;5.00;99.90;;;;;;5093148;28;20464;-72
2022/02/22 02:04:15;;;;;;;30.97;16.20;;;5.00;99.90;;;;;;5097902;28;20803;-69
2022/02/22 02:06:42;;;;;;;30.60;15.00;;;4.90;99.90;;;;;;5097563;28;20465;-69
2022/02/22 02:09:10;;;;;;;29.80;15.03;;;4.90;99.90;;;;;;5093477;28;20458;-70
2022/02/22 02:11:45;;;;;;;38.33;17.20;;;4.80;99.90;;;;;;5100058;28;20461;-70
2022/02/22 02:14:12;;;;;;;26.77;17.23;;;4.80;99.90;;;;;;5089244;28;20484;-71
2022/02/22 02:16:40;;;;;;;38.57;15.80;;;4.70;99.90;;;;;;5094619;28;20458;-71
2022/02/22 02:19:08;;;;;;;36.77;16.50;;;4.60;99.90;;;;;;5094702;28;20489;-71
2022/02/22 02:21:39;;;;;;;28.50;17.00;;;4.60;99.90;;;;;;5092675;28;20992;-69
2022/02/22 02:24:13;;;;;;;27.70;16.93;;;4.60;99.90;;;;;;5093484;28;21151;-69
2022/02/22 02:26:41;;;;;;;32.07;17.20;;;4.60;99.90;;;;;;5097554;28;20927;-71
2022/02/22 02:29:09;;;;;;;26.77;15.50;;;4.50;99.90;;;;;;5091888;28;20549;-70
2022/02/22 02:31:36;;;;;;;35.93;16.50;;;4.40;99.90;;;;;;5091588;28;20892;-72
2022/02/22 02:34:06;;;;;;;34.17;15.53;;;4.40;99.90;;;;;;5091373;28;20474;-71
2022/02/22 02:36:33;;;;;;;32.97;16.00;;;4.30;99.90;;;;;;5092762;28;20817;-72
2022/02/22 02:39:00;;;;;;;34.70;14.90;;;4.30;99.90;;;;;;5092068;28;20459;-71
2022/02/22 02:41:28;;;;;;;32.57;16.10;;;4.20;99.90;;;;;;5094886;28;20609;-72
2022/02/22 02:44:00;;;;;;;36.93;15.63;;;4.20;99.90;;;;;;5096398;28;20460;-68
2022/02/22 02:46:27;;;;;;;45.93;17.47;;;4.20;99.90;;;;;;5094872;28;20515;-71
2022/02/22 02:48:55;;;;;;;30.63;17.30;;;4.10;99.90;;;;;;5092087;28;20464;-70
2022/02/22 02:51:22;;;;;;;47.03;18.20;;;4.10;99.90;;;;;;5095644;28;20530;-69
2022/02/22 02:53:49;;;;;;;47.27;17.90;;;4.20;99.90;;;;;;5103149;28;20457;-71
2022/02/22 02:56:18;;;;;;;25.87;16.80;;;4.20;99.90;;;;;;5092712;28;20519;-70
2022/02/22 02:58:46;;;;;;;32.47;17.00;;;4.10;99.90;;;;;;5094472;28;21225;-70
2022/02/22 03:01:13;;;;;;;37.57;17.87;;;4.10;99.90;;;;;;5091963;28;20485;-69
2022/02/22 03:03:40;;;;;;;34.17;18.00;;;4.00;99.90;;;;;;5095807;28;20469;-70
2022/02/22 03:06:07;;;;;;;38.17;18.77;;;4.00;99.90;;;;;;5096662;28;20464;-70
2022/02/22 03:08:34;;;;;;;44.60;17.90;;;4.00;99.90;;;;;;5094977;28;20754;-71
2022/02/22 03:11:01;;;;;;;31.00;18.50;;;4.00;99.90;;;;;;5093386;28;20466;-69
2022/02/22 03:13:28;;;;;;;49.40;20.70;;;4.00;99.90;;;;;;5091750;28;20470;-71
2022/02/22 03:15:57;;;;;;;29.63;19.47;;;3.90;99.90;;;;;;5095218;28;20497;-70
2022/02/22 03:18:23;;;;;;;32.10;18.73;;;3.90;99.90;;;;;;5093936;28;20457;-69
2022/02/22 03:20:51;;;;;;;35.67;20.10;;;3.90;99.90;;;;;;5094351;28;20466;-69
2022/02/22 03:23:19;;;;;;;39.23;19.97;;;3.90;99.90;;;;;;5095180;28;20458;-70
2022/02/22 03:25:46;;;;;;;50.57;19.67;;;4.00;99.90;;;;;;5095434;28;20501;-69
2022/02/22 03:28:12;;;;;;;26.30;18.43;;;4.10;99.90;;;;;;5092869;28;20484;-68
2022/02/22 03:30:39;;;;;;;32.30;18.03;;;4.10;99.90;;;;;;5094971;28;20462;-70
2022/02/22 03:33:08;;;;;;;26.70;17.50;;;4.10;99.90;;;;;;5100785;28;20532;-71
2022/02/22 03:35:36;;;;;;;41.97;17.87;;;4.10;99.90;;;;;;5086799;28;20489;-69
2022/02/22 03:38:03;;;;;;;34.63;18.07;;;4.10;99.90;;;;;;5097393;28;20465;-68
2022/02/22 03:40:30;;;;;;;27.23;18.00;;;4.10;99.90;;;;;;5090324;28;20465;-70
2022/02/22 03:42:57;;;;;;;42.37;19.60;;;4.20;99.90;;;;;;5094707;28;20484;-71
2022/02/22 03:45:23;;;;;;;24.63;19.13;;;4.10;99.90;;;;;;5093575;28;20465;-71
2022/02/22 03:47:50;;;;;;;42.77;19.03;;;4.10;99.90;;;;;;5094836;28;20901;-71
2022/02/22 03:50:19;;;;;;;35.63;18.33;;;4.10;99.90;;;;;;5093727;28;20465;-70
2022/02/22 03:52:46;;;;;;;24.70;17.30;;;4.00;99.90;;;;;;5090813;28;20469;-69
2022/02/22 03:55:13;;;;;;;38.13;17.90;;;4.00;99.90;;;;;;5092141;28;20500;-70
2022/02/22 03:57:42;;;;;;;41.77;19.60;;;3.90;99.90;;;;;;5096218;28;20544;-69
2022/02/22 04:00:13;;;;;;;33.50;18.90;;;3.90;99.90;;;;;;5094603;28;20487;-69
2022/02/22 04:02:40;;;;;;;31.90;18.23;;;3.80;99.90;;;;;;5095371;28;20458;-70
2022/02/22 04:05:08;;;;;;;32.80;18.10;;;3.70;99.90;;;;;;5095839;28;20469;-69
2022/02/22 04:07:37;;;;;;;28.83;18.00;;;3.80;99.90;;;;;;5094097;28;20960;-70
2022/02/22 04:10:06;;;;;;;44.70;19.30;;;3.80;99.90;;;;;;5093512;28;20462;-69
2022/02/22 04:12:33;;;;;;;48.13;18.40;;;3.80;99.90;;;;;;5091735;28;20557;-69
2022/02/22 04:15:00;;;;;;;42.07;21.00;;;3.80;99.90;;;;;;5095798;28;20825;-67
2022/02/22 04:17:27;;;;;;;33.00;18.30;;;3.70;99.90;;;;;;5100444;28;20453;-70
2022/02/22 04:19:54;;;;;;;39.47;18.57;;;3.80;99.90;;;;;;5095825;28;20477;-70
2022/02/22 04:22:22;;;;;;;21.33;18.30;;;3.80;99.90;;;;;;5100273;28;20555;-68
2022/02/22 04:24:51;;;;;;;41.47;18.47;;;3.70;99.90;;;;;;5100502;28;20457;-69
2022/02/22 04:27:18;;;;;;;38.97;19.53;;;3.70;99.90;;;;;;5101720;28;20510;-68
2022/02/22 04:29:45;;;;;;;56.00;20.87;;;3.70;99.90;;;;;;5096061;28;20462;-69
2022/02/22 04:32:13;;;;;;;41.67;18.70;;;3.70;99.90;;;;;;5097705;28;20504;-70
2022/02/22 04:34:40;;;;;;;24.47;18.30;;;3.70;99.90;;;;;;5095041;28;20537;-68
2022/02/22 04:37:12;;;;;;;37.10;18.60;;;3.70;99.90;;;;;;5094989;28;20486;-69
2022/02/22 04:39:39;;;;;;;21.90;18.40;;;3.70;99.90;;;;;;5098776;28;20469;-70
2022/02/22 04:42:08;;;;;;;42.90;19.30;;;3.70;99.90;;;;;;5097353;28;20497;-68
2022/02/22 04:44:35;;;;;;;28.63;19.03;;;3.80;99.90;;;;;;5103841;28;20475;-69
2022/02/22 04:47:02;;;;;;;29.53;18.80;;;3.70;99.90;;;;;;5100573;28;20449;-69
2022/02/22 04:49:29;;;;;;;34.33;19.70;;;3.60;99.90;;;;;;5095809;28;20478;-71
2022/02/22 04:51:55;;;;;;;34.97;19.77;;;3.60;99.90;;;;;;5096396;28;20472;-69
2022/02/22 04:54:22;;;;;;;38.10;20.47;;;3.60;99.90;;;;;;5093567;28;20461;-69
2022/02/22 04:56:50;;;;;;;39.30;21.23;;;3.50;99.90;;;;;;5094117;28;20500;-69
2022/02/22 04:59:18;;;;;;;42.40;22.37;;;3.50;99.90;;;;;;5098326;28;20497;-69
2022/02/22 05:01:45;;;;;;;50.50;20.30;;;3.50;99.90;;;;;;5085863;28;20466;-69
2022/02/22 05:04:12;;;;;;;46.33;20.37;;;3.50;99.90;;;;;;5071181;28;20471;-68
2022/02/22 05:06:39;;;;;;;34.27;20.90;;;3.50;99.90;;;;;;5070933;28;20552;-68
2022/02/22 05:09:07;;;;;;;34.90;20.97;;;3.50;99.90;;;;;;5070551;28;20986;-68
2022/02/22 05:11:34;;;;;;;35.67;20.30;;;3.50;99.90;;;;;;5070588;28;21080;-69
2022/02/22 05:14:02;;;;;;;39.70;21.53;;;3.50;99.90;;;;;;5071597;28;20515;-69
2022/02/22 05:16:31;;;;;;;31.90;21.13;;;3.50;99.90;;;;;;5073006;28;20504;-68
2022/02/22 05:18:57;;;;;;;27.70;21.33;;;3.40;99.90;;;;;;5071343;28;21173;-68
2022/02/22 05:21:24;;;;;;;34.07;24.70;;;3.40;99.90;;;;;;5071533;28;20468;-70
2022/02/22 05:23:51;;;;;;;38.40;23.27;;;3.40;99.90;;;;;;5072017;28;20470;-69
2022/02/22 05:26:18;;;;;;;41.50;24.87;;;3.30;99.90;;;;;;5092133;28;21262;-69
2022/02/22 05:28:46;;;;;;;33.83;23.20;;;3.30;99.90;;;;;;5092303;28;20450;-70
2022/02/22 05:31:16;;;;;;;30.73;23.97;;;3.30;99.90;;;;;;5070050;28;20466;-70
2022/02/22 05:33:45;;;;;;;47.60;23.47;;;3.20;99.90;;;;;;5091418;28;20457;-69
2022/02/22 05:36:12;;;;;;;36.73;21.90;;;3.30;99.90;;;;;;5095935;28;20481;-68
2022/02/22 05:38:40;;;;;;;47.27;22.80;;;3.30;99.90;;;;;;5081657;28;20956;-68
2022/02/22 05:41:07;;;;;;;51.80;23.17;;;3.40;99.90;;;;;;5071839;28;20454;-68
2022/02/22 05:43:34;;;;;;;49.00;21.87;;;3.40;99.90;;;;;;5072811;28;21002;-67
2022/02/22 05:46:01;;;;;;;39.50;21.00;;;3.40;99.90;;;;;;5072932;28;20840;-68
2022/02/22 05:48:28;;;;;;;28.80;21.03;;;3.50;99.90;;;;;;5071926;28;20497;-67
2022/02/22 05:50:56;;;;;;;43.60;21.60;;;3.50;99.90;;;;;;5070875;28;20514;-67
2022/02/22 05:53:23;;;;;;;37.97;20.50;;;3.50;99.90;;;;;;5072405;28;20465;-68
2022/02/22 05:55:49;;;;;;;37.60;20.80;;;3.50;99.90;;;;;;5071252;28;20490;-67
2022/02/22 05:58:16;;;;;;;29.13;19.87;;;3.50;99.90;;;;;;5070725;28;20463;-68
2022/02/22 06:00:43;;;;;;;24.53;21.20;;;3.50;99.90;;;;;;5071354;28;20462;-68
2022/02/22 06:03:10;;;;;;;27.10;20.63;;;3.50;99.90;;;;;;5071063;28;20480;-70
2022/02/22 06:05:36;;;;;;;35.40;20.20;;;3.50;99.90;;;;;;5071143;28;21247;-71
2022/02/22 06:08:05;;;;;;;42.83;21.83;;;3.50;99.90;;;;;;5071665;28;20454;-70
2022/02/22 06:10:32;;;;;;;35.80;21.73;;;3.50;99.90;;;;;;5072734;28;20557;-70
2022/02/22 06:12:59;;;;;;;31.97;23.10;;;3.50;99.90;;;;;;5071614;28;20454;-70
2022/02/22 06:15:26;;;;;;;35.37;22.77;;;3.50;99.90;;;;;;5071413;28;20927;-68
2022/02/22 06:17:53;;;;;;;38.07;23.80;;;3.50;99.90;;;;;;5072455;28;20462;-69
2022/02/22 06:20:19;;;;;;;27.57;22.97;;;3.50;99.90;;;;;;5069953;28;20485;-68
2022/02/22 06:22:46;;;;;;;39.73;26.33;;;3.40;99.90;;;;;;5069881;28;20461;-68
2022/02/22 06:25:14;;;;;;;36.53;25.23;;;3.40;99.90;;;;;;5088422;28;20489;-67
2022/02/22 06:27:49;;;;;;;28.23;23.80;;;3.40;99.90;;;;;;5086358;28;20462;-68
2022/02/22 06:30:16;;;;;;;47.97;25.50;;;3.40;99.90;;;;;;5095016;28;20469;-67
2022/02/22 06:32:43;;;;;;;34.20;26.83;;;3.40;99.90;;;;;;5095690;28;20476;-68
2022/02/22 06:35:10;;;;;;;55.27;29.33;;;3.30;99.90;;;;;;5072787;28;20497;-68
2022/02/22 06:37:38;;;;;;;42.10;30.80;;;3.40;99.90;;;;;;5067917;28;20465;-68
2022/02/22 06:40:06;;;;;;;41.03;26.40;;;3.30;99.90;;;;;;5069368;28;20968;-67
2022/02/22 06:42:36;;;;;;;44.53;24.37;;;3.40;99.90;;;;;;5068309;28;20934;-68
2022/02/22 06:45:03;;;;;;;46.37;25.07;;;3.40;99.90;;;;;;5069997;28;21005;-68
2022/02/22 06:47:30;;;;;;;49.20;24.13;;;3.40;99.90;;;;;;5069898;28;20470;-67
2022/02/22 06:49:57;;;;;;;39.10;23.80;;;3.40;99.90;;;;;;5070058;28;21173;-68
2022/02/22 06:52:24;;;;;;;25.77;22.73;;;3.40;99.90;;;;;;5081020;28;20477;-69
2022/02/22 06:54:51;;;;;;;29.07;23.87;;;3.40;99.90;;;;;;5097885;28;21119;-68
2022/02/22 06:57:18;;;;;;;44.93;24.70;;;3.50;99.90;;;;;;5080688;28;20470;-69
2022/02/22 06:59:47;;;;;;;26.30;21.87;;;3.60;99.90;;;;;;5067970;28;20827;-68
2022/02/22 07:02:13;;;;;;;24.37;21.93;;;3.60;99.90;;;;;;5066386;28;20461;-69
2022/02/22 07:04:40;;;;;;;28.27;22.37;;;3.70;99.90;;;;;;5068043;28;20612;-69
2022/02/22 07:07:07;;;;;;;35.13;23.13;;;3.80;99.90;;;;;;5068181;28;20461;-68
2022/02/22 07:09:34;;;;;;;25.17;22.60;;;3.80;99.90;;;;;;5066853;28;20462;-67
2022/02/22 07:12:02;;;;;;;31.33;22.90;;;4.00;99.90;;;;;;5068014;28;20468;-68
2022/02/22 07:14:29;;;;;;;24.93;21.70;;;4.00;99.90;;;;;;5068976;28;20473;-67
2022/02/22 07:16:57;;;;;;;27.80;22.60;;;4.10;99.90;;;;;;5069052;28;20517;-69
2022/02/22 07:19:24;;;;;;;35.23;21.53;;;4.00;99.90;;;;;;5067663;28;20556;-68
2022/02/22 07:21:51;;;;;;;33.30;22.73;;;4.10;99.90;;;;;;5067320;28;20461;-67
2022/02/22 07:24:18;;;;;;;33.07;22.90;;;4.20;99.90;;;;;;5066717;28;21157;-69
2022/02/22 07:26:45;;;;;;;29.77;22.50;;;4.30;99.90;;;;;;5066662;28;20469;-67
2022/02/22 07:29:12;;;;;;;27.13;22.83;;;4.30;99.90;;;;;;5068036;28;20470;-68
2022/02/22 07:31:39;;;;;;;33.07;22.43;;;4.30;99.90;;;;;;5069468;28;20457;-69
2022/02/22 07:34:07;;;;;;;25.30;22.23;;;4.50;99.90;;;;;;5067683;28;20485;-67
2022/02/22 07:36:34;;;;;;;35.83;21.73;;;4.60;99.90;;;;;;5067655;28;20484;-68
2022/02/22 07:39:01;;;;;;;23.47;20.77;;;4.60;99.90;;;;;;5075711;28;20465;-68
2022/02/22 07:41:27;;;;;;;37.50;20.53;;;4.60;99.90;;;;;;5066935;28;20469;-68
2022/02/22 07:43:54;;;;;;;27.23;21.40;;;4.70;99.90;;;;;;5067752;28;20604;-67
2022/02/22 07:46:21;;;;;;;29.63;20.10;;;4.80;99.90;;;;;;5069193;28;20478;-68
2022/02/22 07:48:49;;;;;;;29.53;21.80;;;4.70;99.90;;;;;;5068415;28;20489;-68
2022/02/22 07:51:18;;;;;;;28.77;21.03;;;4.80;99.90;;;;;;5068423;28;21118;-68
2022/02/22 07:53:45;;;;;;;22.33;20.00;;;4.90;99.90;;;;;;5066483;28;20852;-66
2022/02/22 07:56:12;;;;;;;28.83;20.53;;;4.90;99.90;;;;;;5068554;28;21794;-68
2022/02/22 07:58:39;;;;;;;21.70;19.33;;;4.80;99.90;;;;;;5068936;28;21102;-68
2022/02/22 08:01:06;;;;;;;30.00;19.83;;;4.90;99.90;;;;;;5067908;28;20474;-68
2022/02/22 08:03:34;;;;;;;28.97;19.53;;;4.90;99.90;;;;;;5066405;28;20533;-68
2022/02/22 08:06:01;;;;;;;22.37;17.90;;;5.00;99.90;;;;;;5067273;28;20808;-68
2022/02/22 08:08:29;;;;;;;33.73;18.40;;;5.00;99.90;;;;;;5062033;28;21203;-68
2022/02/22 08:10:56;;;;;;;25.10;21.37;;;5.10;99.90;;;;;;5058755;28;20473;-69
2022/02/22 08:13:22;;;;;;;20.13;18.00;;;5.20;99.90;;;;;;5062421;28;20849;-67
2022/02/22 08:15:50;;;;;;;29.93;18.60;;;5.30;99.90;;;;;;5062836;28;20946;-68
2022/02/22 08:18:16;;;;;;;25.50;16.90;;;5.50;99.90;;;;;;5062895;28;20459;-70
2022/02/22 08:20:43;;;;;;;32.50;18.20;;;5.50;99.90;;;;;;5062276;28;20495;-68
2022/02/22 08:23:10;;;;;;;19.40;16.27;;;5.70;99.90;;;;;;5064560;28;20461;-71
2022/02/22 08:25:38;;;;;;;22.53;16.77;;;5.70;99.90;;;;;;5062339;28;20466;-70
2022/02/22 08:28:23;;;;;;;23.53;16.07;;;5.90;99.90;;;;;;5062728;28;20930;-68
2022/02/22 08:30:49;;;;;;;22.50;15.07;;;6.00;99.90;;;;;;5064301;28;20461;-70
2022/02/22 08:33:16;;;;;;;31.77;15.90;;;6.20;99.90;;;;;;5065110;28;20450;-72
2022/02/22 08:35:43;;;;;;;28.00;17.10;;;6.40;99.90;;;;;;5064206;28;20483;-70
2022/02/22 08:38:10;;;;;;;28.77;16.73;;;6.30;99.90;;;;;;5063799;28;20944;-72
2022/02/22 08:40:38;;;;;;;18.77;16.77;;;6.40;99.90;;;;;;5062639;28;20480;-69
2022/02/22 08:43:05;;;;;;;25.80;19.50;;;6.50;99.90;;;;;;5062582;28;20490;-70
2022/02/22 08:45:32;;;;;;;30.53;17.63;;;6.70;99.90;;;;;;5063841;28;20469;-70
2022/02/22 08:47:59;;;;;;;28.33;17.70;;;6.50;99.90;;;;;;5063735;28;20465;-70
2022/02/22 08:50:27;;;;;;;24.03;18.90;;;6.70;99.90;;;;;;5062439;28;20892;-69
2022/02/22 08:52:54;;;;;;;20.30;17.80;;;6.80;99.90;;;;;;5064151;28;20549;-69
2022/02/22 08:55:21;;;;;;;34.13;18.90;;;6.80;99.90;;;;;;5063366;28;21298;-68
2022/02/22 08:57:49;;;;;;;29.53;20.17;;;6.80;99.90;;;;;;5062900;28;20502;-68
2022/02/22 09:00:17;;;;;;;30.60;21.20;;;7.00;99.90;;;;;;5062539;28;20492;-70
2022/02/22 09:02:44;;;;;;;31.00;21.70;;;7.10;99.90;;;;;;5065278;28;20471;-71
2022/02/22 09:05:12;;;;;;;32.40;20.07;;;7.20;99.90;;;;;;5067873;28;20552;-70
2022/02/22 09:07:38;;;;;;;31.43;21.50;;;7.40;99.90;;;;;;5067937;28;21056;-69
2022/02/22 09:10:06;;;;;;;39.07;21.87;;;7.40;99.90;;;;;;5066981;28;20461;-69
2022/02/22 09:12:33;;;;;;;28.70;23.10;;;7.50;99.90;;;;;;5067257;28;20465;-70
2022/02/22 09:15:02;;;;;;;32.57;23.23;;;7.60;99.90;;;;;;5067227;28;20460;-70
2022/02/22 09:17:29;;;;;;;39.20;21.20;;;7.60;99.90;;;;;;5065393;28;20486;-69
2022/02/22 09:19:57;;;;;;;33.83;21.20;;;7.80;99.90;;;;;;5066110;28;20496;-68
2022/02/22 09:22:24;;;;;;;33.33;21.37;;;7.80;99.90;;;;;;5066783;28;20496;-69
2022/02/22 09:24:51;;;;;;;24.63;18.97;;;8.00;99.90;;;;;;5067278;28;21431;-69
2022/02/22 09:27:18;;;;;;;27.90;21.63;;;8.20;99.90;;;;;;5074815;28;20494;-69
2022/02/22 09:29:45;;;;;;;28.30;20.37;;;8.40;99.90;;;;;;5072229;28;20470;-69
2022/02/22 09:32:14;;;;;;;23.20;19.27;;;8.60;99.90;;;;;;5067498;28;20463;-68
2022/02/22 09:34:41;;;;;;;23.73;19.33;;;8.70;99.90;;;;;;5067465;28;20458;-69
2022/02/22 09:37:09;;;;;;;28.50;20.03;;;8.70;99.90;;;;;;5066878;28;20500;-68
2022/02/22 09:39:37;;;;;;;26.30;19.40;;;8.80;99.90;;;;;;5066820;28;20468;-70
2022/02/22 09:42:07;;;;;;;25.13;18.80;;;8.80;99.90;;;;;;5066667;28;20488;-69
2022/02/22 09:44:35;;;;;;;26.70;19.83;;;8.70;99.90;;;;;;5066909;28;20917;-69
2022/02/22 09:47:03;;;;;;;27.37;19.87;;;8.70;99.90;;;;;;5066612;28;20530;-69
2022/02/22 09:49:31;;;;;;;26.73;18.70;;;9.00;99.90;;;;;;5066973;28;20960;-69
2022/02/22 09:51:58;;;;;;;29.63;18.83;;;9.10;99.90;;;;;;5066097;28;20490;-70
2022/02/22 09:54:26;;;;;;;27.63;19.03;;;9.40;99.90;;;;;;5065031;28;20465;-70
2022/02/22 09:56:53;;;;;;;20.30;18.30;;;9.20;99.90;;;;;;5065681;28;20496;-68
2022/02/22 09:59:22;;;;;;;49.90;18.73;;;9.40;99.90;;;;;;5064871;28;20462;-69
2022/02/22 10:01:52;;;;;;;26.10;19.73;;;9.50;99.90;;;;;;5066260;28;20965;-70
2022/02/22 10:04:19;;;;;;;19.63;17.67;;;9.30;99.90;;;;;;5063477;28;20487;-69
2022/02/22 10:06:49;;;;;;;20.53;18.20;;;9.10;99.90;;;;;;5065795;28;21744;-69
2022/02/22 10:09:18;;;;;;;24.13;17.63;;;9.10;99.90;;;;;;5065234;28;20826;-69
2022/02/22 10:11:46;;;;;;;25.23;18.57;;;9.40;99.90;;;;;;5083001;28;20555;-70
2022/02/22 10:14:21;;;;;;;19.47;16.83;;;9.50;99.90;;;;;;5094135;28;21067;-69
2022/02/22 10:16:49;;;;;;;26.00;18.80;;;9.40;99.90;;;;;;5091570;28;20485;-71
2022/02/22 10:19:17;;;;;;;29.73;19.57;;;9.50;99.90;;;;;;5066248;28;20574;-72
2022/02/22 10:21:47;;;;;;;27.23;17.97;;;9.60;99.90;;;;;;5065841;28;20469;-69
2022/02/22 10:24:20;;;;;;;29.90;18.73;;;9.80;99.90;;;;;;5065428;28;20463;-70
2022/02/22 10:26:47;;;;;;;21.20;18.37;;;9.80;99.90;;;;;;5066311;28;20541;-69
2022/02/22 10:29:15;;;;;;;20.93;18.23;;;9.50;99.90;;;;;;5062859;28;20461;-69
2022/02/22 10:31:43;;;;;;;36.47;20.13;;;9.40;99.90;;;;;;5065333;28;20474;-71
2022/02/22 10:34:10;;;;;;;19.47;17.90;;;9.30;99.90;;;;;;5064761;28;20567;-70
2022/02/22 10:36:38;;;;;;;21.07;17.93;;;9.30;99.90;;;;;;5065118;28;20597;-69
2022/02/22 10:39:07;;;;;;;20.97;18.77;;;9.30;99.90;;;;;;5063707;28;20461;-69
2022/02/22 10:41:40;;;;;;;21.27;18.87;;;9.10;99.90;;;;;;5062983;28;20531;-70
2022/02/22 10:44:09;;;;;;;24.13;21.10;;;8.90;99.90;;;;;;5070286;28;20460;-69
2022/02/22 10:46:43;;;;;;;31.23;18.60;;;9.00;99.90;;;;;;5064558;28;20480;-69
2022/02/22 10:49:13;;;;;;;24.10;18.40;;;9.10;99.90;;;;;;5065357;28;20493;-70
2022/02/22 10:51:43;;;;;;;20.63;18.50;;;9.20;99.90;;;;;;5065176;28;20483;-71
2022/02/22 10:54:16;;;;;;;29.13;18.23;;;9.30;99.90;;;;;;5065059;28;22386;-70
2022/02/22 10:56:45;;;;;;;29.53;19.20;;;9.20;99.90;;;;;;5065349;28;20492;-69
2022/02/22 10:59:12;;;;;;;21.13;18.80;;;9.20;99.90;;;;;;5064475;28;20555;-70
2022/02/22 11:01:39;;;;;;;25.03;19.50;;;9.40;99.90;;;;;;5065283;28;21059;-71
2022/02/22 11:04:08;;;;;;;20.90;18.43;;;9.20;99.90;;;;;;5064567;28;21404;-69
2022/02/22 11:06:36;;;;;;;19.50;17.50;;;9.20;99.90;;;;;;5064821;28;22700;-70
2022/02/22 11:09:04;;;;;;;25.17;18.37;;;9.30;99.90;;;;;;5060918;28;20472;-70
2022/02/22 11:11:37;;;;;;;23.03;19.07;;;9.20;99.90;;;;;;5063280;28;20966;-70
2022/02/22 11:14:07;;;;;;;29.07;19.17;;;9.20;99.90;;;;;;5063684;28;20461;-71
2022/02/22 11:16:43;;;;;;;25.43;19.67;;;9.30;99.90;;;;;;5064129;28;20601;-72
2022/02/22 11:19:15;;;;;;;23.70;17.70;;;9.50;99.90;;;;;;5064002;28;20486;-72
2022/02/22 11:21:43;;;;;;;29.23;19.60;;;9.60;99.90;;;;;;5062623;28;20450;-74
2022/02/22 11:24:12;;;;;;;18.70;17.20;;;9.70;99.90;;;;;;5064033;28;20480;-70
2022/02/22 11:26:52;;;;;;;26.10;17.67;;;9.50;99.90;;;;;;5076166;28;20458;-71
2022/02/22 11:29:23;;;;;;;19.87;17.80;;;9.50;99.90;;;;;;5090111;28;20462;-70
2022/02/22 11:32:01;;;;;;;22.67;18.57;;;9.60;99.90;;;;;;5088557;28;20511;-69
2022/02/22 11:34:33;;;;;;;24.30;18.60;;;9.70;99.90;;;;;;5088391;28;20542;-69
2022/02/22 11:37:02;;;;;;;24.40;17.97;;;9.60;99.90;;;;;;5062843;28;21113;-70
2022/02/22 11:39:31;;;;;;;34.33;18.03;;;9.70;99.90;;;;;;5071866;28;20461;-69
2022/02/22 11:41:59;;;;;;;20.73;18.50;;;10.00;99.90;;;;;;5085830;28;20489;-71
2022/02/22 11:44:27;;;;;;;29.40;18.53;;;10.20;99.90;;;;;;5082122;28;21479;-72
2022/02/22 11:46:56;;;;;;;34.27;18.90;;;9.90;99.90;;;;;;5064880;28;20823;-70
2022/02/22 11:49:26;;;;;;;29.50;19.30;;;9.80;99.90;;;;;;5064475;28;21239;-72
2022/02/22 11:51:53;;;;;;;20.53;17.90;;;9.80;99.90;;;;;;5063941;28;21238;-70
2022/02/22 11:54:23;;;;;;;26.57;18.73;;;9.90;99.90;;;;;;5064055;28;20468;-70
2022/02/22 11:57:02;;;;;;;25.53;19.00;;;9.80;99.90;;;;;;5062055;28;20590;-70
2022/02/22 11:59:32;;;;;;;28.13;19.60;;;9.70;99.90;;;;;;5063747;28;20462;-70
2022/02/22 12:02:01;;;;;;;25.57;18.80;;;9.50;99.90;;;;;;5064785;28;20554;-69
2022/02/22 12:04:30;;;;;;;28.40;18.13;;;9.40;99.90;;;;;;5090090;28;20465;-70
2022/02/22 12:06:59;;;;;;;20.00;17.23;;;9.40;99.90;;;;;;5092854;28;20480;-71
2022/02/22 12:09:38;;;;;;;27.27;21.27;;;9.30;99.90;;;;;;5064199;28;20482;-69
2022/02/22 12:12:07;;;;;;;31.60;28.27;;;9.20;99.90;;;;;;5063223;28;20965;-68
2022/02/22 12:14:35;;;;;;;37.97;33.30;;;8.90;99.90;;;;;;5062317;28;20476;-69
2022/02/22 12:17:06;;;;;;;40.73;32.50;;;8.60;99.90;;;;;;5064880;28;21344;-69
2022/02/22 12:19:33;;;;;;;35.03;31.40;;;8.20;99.90;;;;;;5061221;28;20489;-70
2022/02/22 12:21:59;;;;;;;31.10;28.80;;;8.20;99.90;;;;;;5057450;28;20469;-69
2022/02/22 12:24:26;;;;;;;29.70;27.50;;;8.30;99.90;;;;;;5058492;28;21186;-69
2022/02/22 12:26:53;;;;;;;43.00;32.37;;;8.30;99.90;;;;;;5063357;28;20472;-70
2022/02/22 12:29:23;;;;;;;44.37;31.87;;;8.10;99.90;;;;;;5081829;28;20855;-70
2022/02/22 12:31:55;;;;;;;36.97;33.00;;;8.10;99.90;;;;;;5090262;28;20571;-69
2022/02/22 12:34:24;;;;;;;40.87;33.27;;;8.10;99.90;;;;;;5080171;28;20472;-71
2022/02/22 12:36:55;;;;;;;36.90;32.00;;;8.10;99.90;;;;;;5065983;28;20562;-71
2022/02/22 12:39:24;;;;;;;35.10;31.40;;;8.10;99.90;;;;;;5068360;28;20473;-70